createdAt,value
2022-12-19T00:01:57.785Z,-3.16
2022-12-19T00:06:59.959Z,-2.76
2022-12-19T00:12:01.691Z,-2.89
2022-12-19T00:17:03.346Z,-2.77
2022-12-19T00:22:10.894Z,-3.00
2022-12-19T00:27:12.902Z,-2.97
2022-12-19T00:32:14.586Z,-3.15
2022-12-19T00:37:18.250Z,-2.94
2022-12-19T00:42:19.965Z,-3.02
2022-12-19T00:47:23.652Z,-3.00
2022-12-19T00:52:25.353Z,-3.22
2022-12-19T00:57:27.338Z,-3.18
2022-12-19T01:02:29.135Z,-3.20
2022-12-19T01:07:30.849Z,-3.34
2022-12-19T01:12:47.730Z,-3.30
2022-12-19T01:17:49.841Z,-3.24
2022-12-19T01:22:53.294Z,-3.25
2022-12-19T01:27:55.797Z,-3.35
2022-12-19T01:32:58.686Z,-3.38
2022-12-19T01:38:08.478Z,-3.32
2022-12-19T01:43:14.843Z,-3.31
2022-12-19T01:48:22.482Z,-3.40
2022-12-19T01:53:28.943Z,-3.24
2022-12-19T01:58:31.017Z,-3.35
2022-12-19T02:03:35.550Z,-3.34
2022-12-19T02:08:37.635Z,-3.41
2022-12-19T02:13:40.585Z,-3.32
2022-12-19T02:19:30.405Z,-3.44
2022-12-19T02:24:50.829Z,-3.40
2022-12-19T02:30:10.513Z,-3.51
2022-12-19T02:35:40.416Z,-3.49
2022-12-19T02:40:51.882Z,-3.47
2022-12-19T02:46:00.933Z,-3.41
2022-12-19T02:51:04.693Z,-3.66
2022-12-19T02:56:22.827Z,-3.61
2022-12-19T03:01:31.038Z,-3.74
2022-12-19T03:06:48.456Z,-3.65
2022-12-19T03:12:00.528Z,-3.41
2022-12-19T03:17:06.107Z,-3.59
2022-12-19T03:22:08.522Z,-3.70
2022-12-19T03:27:22.788Z,-3.47
2022-12-19T03:32:25.240Z,-3.45
2022-12-19T03:37:31.991Z,-3.32
2022-12-19T03:42:54.243Z,-3.38
2022-12-19T03:48:00.915Z,-3.51
2022-12-19T03:53:23.979Z,-3.59
2022-12-19T03:58:33.976Z,-3.26
2022-12-19T04:03:36.183Z,-3.15
2022-12-19T04:08:38.532Z,-3.13
2022-12-19T04:13:47.575Z,-3.14
2022-12-19T04:18:56.450Z,-2.99
2022-12-19T04:24:04.610Z,-2.95
2022-12-19T04:29:08.073Z,-3.14
2022-12-19T04:34:09.844Z,-2.97
2022-12-19T04:39:11.639Z,-3.00
2022-12-19T04:44:13.312Z,-2.96
2022-12-19T04:49:14.957Z,-2.90
2022-12-19T04:54:16.842Z,-2.77
2022-12-19T04:59:18.609Z,-3.22
2022-12-19T05:04:20.419Z,-3.26
2022-12-19T05:09:22.177Z,-2.99
2022-12-19T05:14:24.282Z,-2.89
2022-12-19T05:19:25.993Z,-2.88
2022-12-19T05:24:27.662Z,-2.99
2022-12-19T05:29:29.367Z,-3.32
2022-12-19T05:34:31.753Z,-2.88
2022-12-19T05:39:33.492Z,-2.62
2022-12-19T05:44:35.292Z,-2.43
2022-12-19T05:49:37.003Z,-2.43
2022-12-19T05:54:38.657Z,-2.37
2022-12-19T05:59:40.309Z,-2.38
2022-12-19T06:04:42.009Z,-2.36
2022-12-19T06:09:43.697Z,-2.39
2022-12-19T06:14:45.345Z,-2.08
2022-12-19T06:19:47.003Z,-1.99
2022-12-19T06:24:48.685Z,-1.77
2022-12-19T06:29:50.416Z,-1.74
2022-12-19T06:35:07.422Z,-1.76
2022-12-19T06:40:29.749Z,-1.84
2022-12-19T06:45:31.673Z,-1.76
2022-12-19T06:50:36.381Z,-1.79
2022-12-19T06:55:40.071Z,-1.66
2022-12-19T07:00:41.863Z,-1.61
2022-12-19T07:05:44.098Z,-1.54
2022-12-19T07:10:45.877Z,-1.60
2022-12-19T07:15:48.252Z,-1.52
2022-12-19T07:20:49.984Z,-1.36
2022-12-19T07:25:51.764Z,-1.39
2022-12-19T07:30:53.528Z,-1.26
2022-12-19T07:35:55.425Z,-1.25
2022-12-19T07:41:01.237Z,-1.32
2022-12-19T07:46:02.962Z,-1.17
2022-12-19T07:51:05.450Z,-1.04
2022-12-19T07:56:07.685Z,-0.82
2022-12-19T08:01:10.126Z,-0.87
2022-12-19T08:06:11.995Z,-0.66
2022-12-19T08:11:19.136Z,-0.63
2022-12-19T08:16:21.666Z,-0.35
2022-12-19T08:21:25.011Z,-0.40
2022-12-19T08:26:27.759Z,-0.22
2022-12-19T08:31:31.800Z,-0.17
2022-12-19T08:36:33.944Z,-0.24
2022-12-19T08:41:35.745Z,-0.20
2022-12-19T08:46:37.563Z,0.51
2022-12-19T08:51:39.326Z,0.59
2022-12-19T08:56:46.837Z,0.67
2022-12-19T09:01:49.041Z,0.76
2022-12-19T09:06:50.950Z,1.11
2022-12-19T09:11:52.695Z,0.99
2022-12-19T09:16:54.440Z,0.96
2022-12-19T09:21:59.547Z,0.92
2022-12-19T09:27:01.229Z,1.24
2022-12-19T09:32:03.103Z,1.61
2022-12-19T09:37:10.438Z,1.41
2022-12-19T09:42:35.121Z,1.43
2022-12-19T09:47:47.080Z,1.21
2022-12-19T09:52:58.304Z,0.91
2022-12-19T09:58:06.178Z,1.16
2022-12-19T10:03:38.803Z,1.93
2022-12-19T10:09:16.650Z,2.28
2022-12-19T10:14:22.694Z,2.66
2022-12-19T10:19:35.058Z,3.10
2022-12-19T10:25:10.459Z,3.03
2022-12-19T10:30:18.983Z,3.19
2022-12-19T10:35:21.167Z,3.24
2022-12-19T10:40:32.117Z,3.39
2022-12-19T10:45:41.018Z,2.98
2022-12-19T10:50:43.754Z,3.38
2022-12-19T10:55:51.802Z,3.30
2022-12-19T11:01:11.901Z,3.19
2022-12-19T11:06:35.385Z,3.74
2022-12-19T11:13:30.998Z,3.84
2022-12-19T11:23:49.428Z,2.88
2022-12-19T11:29:34.562Z,3.14
2022-12-19T11:29:37.373Z,3.26
2022-12-19T11:33:18.408Z,3.25
2022-12-19T11:38:27.877Z,3.49
2022-12-19T11:43:44.584Z,3.74
2022-12-19T11:48:54.025Z,3.54
2022-12-19T11:54:12.303Z,3.63
2022-12-19T11:59:37.846Z,3.30
2022-12-19T12:04:54.618Z,2.81
2022-12-19T12:13:45.659Z,2.75
2022-12-19T12:26:23.051Z,2.82
2022-12-19T12:31:05.106Z,2.65
2022-12-19T12:31:58.266Z,2.87
2022-12-19T12:35:46.912Z,2.80
2022-12-19T12:39:20.742Z,2.65
2022-12-19T12:44:33.175Z,2.56
2022-12-19T12:49:54.432Z,2.18
2022-12-19T12:54:57.835Z,2.26
2022-12-19T13:00:35.961Z,2.70
2022-12-19T13:05:45.836Z,2.51
2022-12-19T13:10:59.285Z,2.39
2022-12-19T13:16:39.429Z,2.32
2022-12-19T13:22:04.114Z,2.20
2022-12-19T13:27:32.359Z,2.41
2022-12-19T13:32:53.964Z,2.39
2022-12-19T13:39:56.400Z,2.12
2022-12-19T13:43:46.424Z,2.35
2022-12-19T13:48:52.537Z,2.11
2022-12-19T13:53:59.557Z,2.21
2022-12-19T13:59:04.341Z,1.94
2022-12-19T14:04:08.019Z,1.94
2022-12-19T14:11:27.765Z,2.10
2022-12-19T14:15:13.152Z,1.96
2022-12-19T14:22:07.202Z,1.94
2022-12-19T14:28:19.379Z,1.77
2022-12-19T14:31:15.257Z,1.77
2022-12-19T14:36:39.128Z,1.60
2022-12-19T14:42:04.336Z,1.75
2022-12-19T14:52:25.144Z,1.73
2022-12-19T14:54:37.231Z,1.67
2022-12-19T14:58:55.865Z,1.61
2022-12-19T15:03:32.139Z,1.38
2022-12-19T15:09:17.743Z,1.56
2022-12-19T15:14:53.929Z,1.50
2022-12-19T15:19:20.344Z,1.50
2022-12-19T15:24:22.104Z,1.50
2022-12-19T15:29:23.909Z,1.70
2022-12-19T15:34:41.940Z,1.67
2022-12-19T15:39:50.333Z,1.45
2022-12-19T15:44:54.047Z,1.56
2022-12-19T15:49:55.744Z,1.55
2022-12-19T15:54:57.505Z,1.78
2022-12-19T16:00:02.725Z,1.86
2022-12-19T16:05:06.737Z,2.04
2022-12-19T16:10:11.952Z,1.93
2022-12-19T16:15:19.931Z,2.20
2022-12-19T16:20:25.334Z,2.50
2022-12-19T16:25:34.141Z,2.45
2022-12-19T16:30:35.854Z,2.10
2022-12-19T16:40:59.263Z,2.35
2022-12-19T16:46:01.997Z,2.18
2022-12-19T16:51:04.030Z,2.03
2022-12-19T16:56:05.861Z,1.93
2022-12-19T17:01:10.596Z,1.89
2022-12-19T17:06:17.878Z,2.29
2022-12-19T17:11:24.940Z,2.41
2022-12-19T17:16:26.726Z,2.93
2022-12-19T17:21:28.494Z,2.84
2022-12-19T17:26:30.340Z,2.91
2022-12-19T17:31:38.079Z,2.78
2022-12-19T17:36:39.992Z,2.66
2022-12-19T17:41:41.686Z,2.23
2022-12-19T17:46:44.372Z,2.19
2022-12-19T17:51:50.466Z,2.00
2022-12-19T17:56:52.605Z,2.28
2022-12-19T18:01:54.524Z,2.42
2022-12-19T18:06:56.380Z,2.54
2022-12-19T18:11:58.206Z,2.33
2022-12-19T18:17:00.373Z,2.55
2022-12-19T18:22:02.276Z,2.15
2022-12-19T18:27:03.987Z,2.11
2022-12-19T18:32:05.761Z,2.54
2022-12-19T18:37:13.374Z,2.45
2022-12-19T18:42:22.021Z,2.18
2022-12-19T18:47:25.507Z,2.01
2022-12-19T18:52:27.219Z,2.28
2022-12-19T18:57:28.908Z,2.18
2022-12-19T19:02:30.924Z,2.19
2022-12-19T19:07:32.843Z,2.08
2022-12-19T19:12:34.522Z,2.03
2022-12-19T19:17:36.474Z,2.07
2022-12-19T19:22:38.263Z,1.98
2022-12-19T19:27:40.702Z,2.02
2022-12-19T19:32:50.570Z,2.01
2022-12-19T19:37:54.777Z,2.09
2022-12-19T19:42:56.491Z,2.26
2022-12-19T19:48:03.072Z,2.18
2022-12-19T19:53:04.835Z,2.12
2022-12-19T19:58:06.937Z,2.50
2022-12-19T20:03:10.030Z,2.72
2022-12-19T20:08:13.927Z,2.45
2022-12-19T20:13:15.603Z,2.13
2022-12-19T20:18:18.081Z,2.10
2022-12-19T20:23:19.781Z,2.00
2022-12-19T20:28:21.455Z,2.45
2022-12-19T20:33:23.605Z,2.12
2022-12-19T20:38:25.428Z,2.14
2022-12-19T20:43:27.245Z,1.92
2022-12-19T20:48:28.941Z,1.91
2022-12-19T20:53:31.854Z,1.92
2022-12-19T20:58:36.383Z,2.24
2022-12-19T21:03:39.524Z,2.12
2022-12-19T21:08:42.101Z,2.00
2022-12-19T21:13:44.173Z,2.23
2022-12-19T21:18:47.516Z,2.48
2022-12-19T21:23:50.185Z,2.37
2022-12-19T21:28:53.216Z,2.58
2022-12-19T21:34:00.337Z,2.24
2022-12-19T21:39:02.580Z,1.66
2022-12-19T21:44:04.587Z,1.33
2022-12-19T21:49:06.647Z,1.40
2022-12-19T21:54:09.628Z,1.62
2022-12-19T21:59:14.474Z,1.44
2022-12-19T22:04:22.100Z,1.19
2022-12-19T22:09:23.934Z,1.25
2022-12-19T22:14:26.024Z,1.14
2022-12-19T22:19:27.711Z,1.38
2022-12-19T22:24:29.604Z,1.17
2022-12-19T22:29:36.431Z,1.01
2022-12-19T22:34:38.351Z,0.72
2022-12-19T22:39:40.047Z,0.97
2022-12-19T22:44:41.709Z,0.71
2022-12-19T22:49:43.383Z,0.85
2022-12-19T22:54:45.087Z,0.88
2022-12-19T22:59:46.754Z,0.44
2022-12-19T23:04:48.445Z,0.51
2022-12-19T23:09:50.166Z,0.58
2022-12-19T23:14:51.860Z,0.23
2022-12-19T23:19:53.563Z,0.21
2022-12-19T23:24:55.265Z,0.17
2022-12-19T23:29:56.978Z,0.10
2022-12-19T23:34:58.667Z,-0.12
2022-12-19T23:40:00.408Z,-0.15
2022-12-19T23:45:02.150Z,-0.04
2022-12-19T23:50:04.453Z,-0.15
2022-12-19T23:55:06.788Z,-0.23
